createdAt,value
2018-09-24T00:00:40.287Z,0.70
2018-09-24T00:03:08.002Z,0.80
2018-09-24T00:05:35.706Z,0.80
2018-09-24T00:08:03.574Z,0.62
2018-09-24T00:10:31.654Z,0.67
2018-09-24T00:15:27.273Z,0.70
2018-09-24T00:17:55.035Z,0.70
2018-09-24T00:22:50.256Z,0.90
2018-09-24T00:25:18.054Z,1.07
2018-09-24T00:27:45.961Z,1.03
2018-09-24T00:30:13.770Z,0.70
2018-09-24T00:32:41.617Z,0.70
2018-09-24T00:35:09.578Z,0.82
2018-09-24T00:37:37.437Z,0.87
2018-09-24T00:42:32.686Z,0.60
2018-09-24T00:45:00.309Z,0.90
2018-09-24T00:47:28.006Z,0.90
2018-09-24T00:49:55.790Z,0.70
2018-09-24T00:52:23.879Z,0.63
2018-09-24T00:54:51.801Z,0.80
2018-09-24T01:02:14.264Z,0.90
2018-09-24T01:04:42.002Z,0.80
2018-09-24T01:09:37.057Z,0.77
2018-09-24T01:12:05.849Z,0.75
2018-09-24T01:16:45.730Z,0.70
2018-09-24T01:19:13.573Z,0.80
2018-09-24T01:21:41.251Z,0.80
2018-09-24T01:24:08.946Z,1.00
2018-09-24T01:26:36.938Z,0.93
2018-09-24T01:29:04.809Z,0.80
2018-09-24T01:31:32.590Z,0.60
2018-09-24T01:34:00.570Z,0.80
2018-09-24T01:36:28.376Z,0.67
2018-09-24T01:38:56.183Z,0.70
2018-09-24T01:41:23.978Z,0.70
2018-09-24T01:43:51.866Z,0.80
2018-09-24T01:46:19.672Z,0.70
2018-09-24T01:48:47.534Z,1.10
2018-09-24T01:51:15.219Z,1.00
2018-09-24T01:53:42.957Z,0.73
2018-09-24T01:56:10.797Z,0.80
2018-09-24T01:58:38.698Z,0.70
2018-09-24T02:01:12.671Z,1.23
2018-09-24T02:03:41.006Z,0.80
2018-09-24T02:06:08.710Z,0.75
2018-09-24T02:08:43.053Z,0.80
2018-09-24T02:12:57.536Z,0.82
2018-09-24T02:15:27.977Z,0.70
2018-09-24T02:20:23.222Z,0.67
2018-09-24T02:22:51.017Z,0.80
2018-09-24T02:27:46.251Z,0.90
2018-09-24T02:30:16.431Z,0.70
2018-09-24T02:32:44.211Z,0.70
2018-09-24T02:35:12.209Z,0.80
2018-09-24T02:37:40.180Z,0.80
2018-09-24T02:40:20.441Z,0.73
2018-09-24T02:42:48.826Z,0.73
2018-09-24T02:45:16.701Z,0.80
2018-09-24T02:47:44.585Z,0.80
2018-09-24T02:50:12.461Z,0.80
2018-09-24T02:52:40.270Z,0.90
2018-09-24T02:55:13.218Z,1.10
2018-09-24T02:57:41.302Z,0.80
2018-09-24T03:00:09.361Z,0.90
2018-09-24T03:05:04.757Z,0.90
2018-09-24T03:07:32.584Z,0.90
2018-09-24T03:10:00.307Z,0.70
2018-09-24T03:14:55.542Z,0.80
2018-09-24T03:20:03.196Z,0.88
2018-09-24T03:22:30.997Z,1.10
2018-09-24T03:24:58.845Z,0.83
2018-09-24T03:27:26.691Z,1.00
2018-09-24T03:29:54.587Z,0.90
2018-09-24T03:32:22.409Z,0.80
2018-09-24T03:37:17.505Z,0.93
2018-09-24T03:39:45.302Z,0.87
2018-09-24T03:42:13.014Z,0.80
2018-09-24T03:44:40.778Z,0.87
2018-09-24T03:47:09.411Z,0.70
2018-09-24T03:49:37.188Z,0.80
2018-09-24T03:52:04.961Z,0.80
2018-09-24T03:54:32.760Z,0.80
2018-09-24T03:57:00.586Z,0.93
2018-09-24T03:59:28.489Z,0.90
2018-09-24T04:04:29.590Z,0.90
2018-09-24T04:07:03.499Z,1.00
2018-09-24T04:09:37.072Z,0.90
2018-09-24T04:12:11.273Z,0.83
2018-09-24T04:14:44.850Z,0.87
2018-09-24T04:17:18.481Z,0.70
2018-09-24T04:19:52.160Z,1.10
2018-09-24T04:22:25.726Z,1.10
2018-09-24T04:24:59.401Z,1.33
2018-09-24T04:27:33.366Z,1.27
2018-09-24T04:30:06.867Z,1.40
2018-09-24T04:32:40.593Z,1.43
2018-09-24T04:35:14.301Z,1.83
2018-09-24T04:37:48.313Z,1.50
2018-09-24T04:40:21.928Z,1.37
2018-09-24T04:42:55.623Z,1.10
2018-09-24T04:45:29.461Z,1.23
2018-09-24T04:48:03.206Z,1.30
2018-09-24T04:50:36.770Z,1.60
2018-09-24T04:53:10.597Z,1.13
2018-09-24T04:55:44.298Z,1.10
2018-09-24T04:58:17.858Z,1.00
2018-09-24T05:00:51.478Z,1.23
2018-09-24T05:03:25.192Z,1.47
2018-09-24T05:05:59.219Z,1.10
2018-09-24T05:08:33.267Z,1.30
2018-09-24T05:11:06.874Z,1.30
2018-09-24T05:13:40.581Z,1.37
2018-09-24T05:16:14.679Z,1.20
2018-09-24T05:18:48.401Z,1.20
2018-09-24T05:21:22.174Z,1.13
2018-09-24T05:23:55.737Z,1.20
2018-09-24T05:26:29.347Z,1.60
2018-09-24T05:29:03.054Z,1.40
2018-09-24T05:31:36.683Z,1.90
2018-09-24T05:34:39.659Z,1.40
2018-09-24T05:40:05.297Z,1.55
2018-09-24T05:42:38.641Z,1.80
2018-09-24T05:45:12.625Z,2.10
2018-09-24T05:47:46.417Z,2.10
2018-09-24T05:50:20.191Z,1.67
2018-09-24T05:52:53.622Z,1.80
2018-09-24T05:55:27.613Z,1.77
2018-09-24T05:58:01.316Z,1.67
2018-09-24T06:00:34.778Z,2.03
2018-09-24T06:03:08.418Z,1.97
2018-09-24T06:05:42.302Z,1.57
2018-09-24T06:08:15.893Z,1.80
2018-09-24T06:10:49.430Z,2.10
2018-09-24T06:13:23.243Z,1.70
2018-09-24T06:15:56.702Z,1.53
2018-09-24T06:18:30.637Z,1.77
2018-09-24T06:21:04.622Z,1.70
2018-09-24T06:23:38.317Z,1.70
2018-09-24T06:26:11.913Z,1.53
2018-09-24T06:28:45.621Z,1.50
2018-09-24T06:31:19.069Z,1.60
2018-09-24T06:33:52.618Z,1.77
2018-09-24T06:36:26.473Z,1.60
2018-09-24T06:38:59.871Z,1.80
2018-09-24T06:41:33.542Z,1.73
2018-09-24T06:44:07.017Z,1.90
2018-09-24T06:49:13.882Z,1.80
2018-09-24T06:51:47.605Z,1.77
2018-09-24T06:54:21.412Z,1.77
2018-09-24T06:56:54.789Z,2.20
2018-09-24T06:59:28.486Z,1.90
2018-09-24T07:02:02.420Z,1.57
2018-09-24T07:04:35.890Z,2.00
2018-09-24T07:07:09.513Z,2.10
2018-09-24T07:09:43.141Z,1.90
2018-09-24T07:12:16.718Z,1.80
2018-09-24T07:14:50.573Z,1.90
2018-09-24T07:17:24.336Z,1.60
2018-09-24T07:19:57.905Z,1.90
2018-09-24T07:22:31.553Z,1.63
2018-09-24T07:26:56.625Z,1.95
2018-09-24T07:29:30.550Z,2.33
2018-09-24T07:32:04.436Z,1.60
2018-09-24T07:34:38.033Z,1.90
2018-09-24T07:37:11.742Z,1.83
2018-09-24T07:39:45.634Z,2.00
2018-09-24T07:42:19.445Z,1.50
2018-09-24T07:44:53.324Z,1.93
2018-09-24T07:47:26.878Z,1.90
2018-09-24T07:50:00.578Z,1.90
2018-09-24T07:52:34.552Z,1.50
2018-09-24T07:55:08.222Z,1.80
2018-09-24T07:57:41.893Z,1.90
2018-09-24T08:00:15.565Z,1.67
2018-09-24T08:02:49.402Z,1.73
2018-09-24T08:05:23.169Z,1.90
2018-09-24T08:07:56.632Z,2.03
2018-09-24T08:10:30.408Z,1.53
2018-09-24T08:13:04.201Z,1.63
2018-09-24T08:15:37.742Z,1.83
2018-09-24T08:18:12.589Z,1.60
2018-09-24T08:20:46.630Z,1.40
2018-09-24T08:23:20.734Z,2.00
2018-09-24T08:25:54.522Z,2.20
2018-09-24T08:28:28.374Z,2.10
2018-09-24T08:31:01.774Z,1.97
2018-09-24T08:33:35.686Z,1.50
2018-09-24T08:36:09.631Z,2.20
2018-09-24T08:38:43.314Z,1.53
2018-09-24T08:41:16.839Z,1.70
2018-09-24T08:43:50.439Z,1.80
2018-09-24T08:46:24.051Z,2.23
2018-09-24T08:51:31.175Z,1.80
2018-09-24T08:54:04.590Z,1.83
2018-09-24T08:56:38.620Z,1.67
2018-09-24T08:59:12.549Z,2.07
2018-09-24T09:01:46.406Z,1.93
2018-09-24T09:04:20.417Z,1.90
2018-09-24T09:06:53.934Z,1.80
2018-09-24T09:09:27.477Z,1.80
2018-09-24T09:12:01.418Z,1.87
2018-09-24T09:14:35.185Z,1.50
2018-09-24T09:17:08.805Z,1.73
2018-09-24T09:19:42.506Z,1.60
2018-09-24T09:22:16.333Z,1.30
2018-09-24T09:24:49.685Z,1.80
2018-09-24T09:27:23.506Z,1.80
2018-09-24T09:29:56.879Z,1.70
2018-09-24T09:32:30.579Z,1.63
2018-09-24T09:35:04.369Z,1.40
2018-09-24T09:37:37.820Z,1.50
2018-09-24T09:40:11.559Z,1.53
2018-09-24T09:42:44.958Z,1.60
2018-09-24T09:45:18.671Z,1.60
2018-09-24T09:47:52.414Z,1.57
2018-09-24T09:50:26.201Z,1.57
2018-09-24T09:52:59.670Z,2.07
2018-09-24T09:55:33.474Z,1.33
2018-09-24T09:58:07.350Z,1.27
2018-09-24T10:00:40.698Z,1.70
2018-09-24T10:03:14.315Z,1.73
2018-09-24T10:05:47.825Z,1.27
2018-09-24T10:08:21.341Z,1.40
2018-09-24T10:10:54.733Z,1.50
2018-09-24T10:13:28.332Z,1.63
2018-09-24T10:16:02.202Z,1.30
2018-09-24T10:18:35.706Z,1.60
2018-09-24T10:21:09.342Z,1.83
2018-09-24T10:23:42.857Z,1.37
2018-09-24T10:26:16.542Z,1.50
2018-09-24T10:28:50.054Z,1.20
2018-09-24T10:31:23.882Z,1.30
2018-09-24T10:33:57.602Z,1.27
2018-09-24T10:36:31.352Z,1.73
2018-09-24T10:39:05.362Z,1.00
2018-09-24T10:41:38.981Z,1.20
2018-09-24T10:46:46.314Z,1.40
2018-09-24T10:49:20.021Z,1.47
2018-09-24T10:54:26.803Z,1.07
2018-09-24T10:58:07.634Z,1.50
2018-09-24T11:00:41.338Z,1.20
2018-09-24T11:03:15.346Z,1.40
2018-09-24T11:05:48.815Z,1.80
2018-09-24T11:08:22.494Z,1.40
2018-09-24T11:10:55.974Z,1.20
2018-09-24T11:18:35.631Z,1.10
2018-09-24T11:21:09.406Z,1.40
2018-09-24T11:23:43.304Z,1.30
2018-09-24T11:28:50.314Z,1.37
2018-09-24T11:31:23.693Z,1.40
2018-09-24T11:33:57.261Z,1.43
2018-09-24T11:36:31.022Z,1.50
2018-09-24T11:41:37.802Z,1.10
2018-09-24T11:44:11.462Z,1.20
2018-09-24T11:46:45.074Z,1.30
2018-09-24T11:49:18.742Z,1.20
2018-09-24T11:51:52.542Z,1.43
2018-09-24T11:54:26.267Z,1.40
2018-09-24T11:56:59.759Z,1.33
2018-09-24T11:59:34.638Z,1.50
2018-09-24T12:02:08.315Z,1.30
2018-09-24T12:04:41.870Z,1.47
2018-09-24T12:07:15.553Z,1.30
2018-09-24T12:09:49.361Z,1.40
2018-09-24T12:12:22.898Z,1.33
2018-09-24T12:14:56.591Z,1.03
2018-09-24T12:17:30.366Z,1.47
2018-09-24T12:20:04.657Z,1.23
2018-09-24T12:22:38.515Z,1.50
2018-09-24T12:25:12.206Z,1.37
2018-09-24T12:27:45.646Z,1.23
2018-09-24T12:30:19.333Z,1.10
2018-09-24T12:32:52.854Z,1.23
2018-09-24T12:35:26.646Z,1.20
2018-09-24T12:38:00.422Z,1.10
2018-09-24T12:40:34.022Z,1.47
2018-09-24T12:43:07.827Z,1.20
2018-09-24T12:45:41.406Z,1.40
2018-09-24T12:48:15.077Z,1.30
2018-09-24T12:50:49.027Z,1.30
2018-09-24T12:55:55.747Z,1.40
2018-09-24T12:58:29.554Z,1.50
2018-09-24T13:01:03.315Z,1.30
2018-09-24T13:03:36.742Z,1.40
2018-09-24T13:06:10.599Z,1.17
2018-09-24T13:08:44.497Z,1.10
2018-09-24T13:11:18.478Z,1.00
2018-09-24T13:13:52.025Z,1.23
2018-09-24T13:16:25.686Z,1.00
2018-09-24T13:21:30.685Z,0.90
2018-09-24T13:24:04.381Z,1.10
2018-09-24T13:26:37.769Z,1.13
2018-09-24T13:29:11.631Z,1.13
2018-09-24T13:31:45.410Z,1.13
2018-09-24T13:34:19.202Z,1.20
2018-09-24T13:37:18.614Z,1.40
2018-09-24T13:39:52.531Z,1.50
2018-09-24T13:42:26.412Z,0.90
2018-09-24T13:45:00.208Z,1.00
2018-09-24T13:47:33.866Z,1.20
2018-09-24T13:50:07.635Z,1.10
2018-09-24T13:52:41.462Z,1.37
2018-09-24T13:55:15.070Z,1.10
2018-09-24T13:57:48.797Z,1.63
2018-09-24T14:00:22.458Z,1.10
2018-09-24T14:02:56.280Z,1.10
2018-09-24T14:05:29.986Z,1.20
2018-09-24T14:10:36.882Z,1.50
2018-09-24T14:13:10.658Z,1.20
2018-09-24T14:15:44.654Z,1.07
2018-09-24T14:18:19.070Z,1.20
2018-09-24T14:20:53.312Z,1.30
2018-09-24T14:23:26.781Z,1.20
2018-09-24T14:26:00.583Z,1.27
2018-09-24T14:28:34.314Z,1.10
2018-09-24T14:31:08.126Z,1.23
2018-09-24T14:33:41.922Z,1.30
2018-09-24T14:36:16.610Z,1.57
2018-09-24T14:38:50.226Z,1.20
2018-09-24T14:41:23.721Z,1.17
2018-09-24T14:43:57.611Z,1.40
2018-09-24T14:46:31.609Z,1.10
2018-09-24T14:49:05.471Z,1.60
2018-09-24T14:51:39.350Z,1.50
2018-09-24T14:54:13.337Z,1.30
2018-09-24T15:01:54.226Z,1.87
2018-09-24T15:04:27.818Z,1.40
2018-09-24T15:07:01.577Z,1.90
2018-09-24T15:09:35.203Z,1.37
2018-09-24T15:12:08.630Z,1.30
2018-09-24T15:14:42.212Z,1.60
2018-09-24T15:17:15.846Z,1.70
2018-09-24T15:22:22.709Z,2.10
2018-09-24T15:24:56.541Z,2.00
2018-09-24T15:27:30.217Z,1.50
2018-09-24T15:30:04.043Z,1.60
2018-09-24T15:35:11.701Z,1.57
2018-09-24T15:37:45.586Z,1.60
2018-09-24T15:40:19.018Z,1.37
2018-09-24T15:45:25.742Z,1.33
2018-09-24T15:47:59.418Z,1.63
2018-09-24T15:50:33.212Z,1.80
2018-09-24T15:53:07.232Z,1.40
2018-09-24T15:55:40.702Z,1.20
2018-09-24T15:58:14.730Z,1.47
2018-09-24T16:00:48.614Z,0.90
2018-09-24T16:03:22.421Z,1.70
2018-09-24T16:05:56.038Z,0.97
2018-09-24T16:11:03.490Z,1.30
2018-09-24T16:13:37.014Z,1.40
2018-09-24T16:18:43.972Z,1.57
2018-09-24T16:23:50.950Z,1.30
2018-09-24T16:26:24.598Z,1.30
2018-09-24T16:28:58.582Z,1.20
2018-09-24T16:31:32.522Z,0.90
2018-09-24T16:34:06.417Z,1.20
2018-09-24T16:36:40.006Z,1.13
2018-09-24T16:41:47.705Z,1.10
2018-09-24T16:44:21.543Z,1.20
2018-09-24T16:46:54.930Z,1.30
2018-09-24T16:52:02.353Z,1.10
2018-09-24T16:54:36.021Z,1.47
2018-09-24T16:59:43.354Z,1.20
2018-09-24T17:02:16.955Z,1.10
2018-09-24T17:07:23.630Z,1.30
2018-09-24T17:09:57.464Z,1.20
2018-09-24T17:12:30.979Z,1.47
2018-09-24T17:17:37.718Z,1.40
2018-09-24T17:20:11.634Z,2.00
2018-09-24T17:22:45.285Z,1.20
2018-09-24T17:25:18.893Z,1.60
2018-09-24T17:27:52.575Z,1.73
2018-09-24T17:30:26.330Z,1.47
2018-09-24T17:32:59.622Z,1.47
2018-09-24T17:35:33.381Z,1.60
2018-09-24T17:38:06.803Z,1.77
2018-09-24T17:40:40.306Z,1.43
2018-09-24T17:43:13.822Z,1.37
2018-09-24T17:45:47.413Z,1.70
2018-09-24T17:48:21.187Z,1.73
2018-09-24T17:50:54.697Z,2.63
2018-09-24T17:53:28.518Z,2.30
2018-09-24T17:56:02.169Z,1.87
2018-09-24T18:00:12.550Z,1.90
2018-09-24T18:02:46.399Z,1.87
2018-09-24T18:05:20.022Z,1.67
2018-09-24T18:07:53.626Z,1.80
2018-09-24T18:10:27.294Z,1.83
2018-09-24T18:13:00.806Z,2.07
2018-09-24T18:15:34.581Z,1.50
2018-09-24T18:18:07.910Z,1.60
2018-09-24T18:20:41.469Z,1.73
2018-09-24T18:23:14.780Z,1.90
2018-09-24T18:25:48.594Z,1.80
2018-09-24T18:28:22.302Z,1.50
2018-09-24T18:30:56.348Z,1.43
2018-09-24T18:33:29.789Z,1.60
2018-09-24T18:36:03.587Z,1.80
2018-09-24T18:38:37.170Z,1.60
2018-09-24T18:41:10.726Z,1.87
2018-09-24T18:43:44.485Z,1.67
2018-09-24T18:46:18.041Z,1.70
2018-09-24T18:51:25.279Z,2.07
2018-09-24T18:53:58.652Z,1.83
2018-09-24T18:56:32.485Z,1.50
2018-09-24T18:59:06.156Z,1.70
2018-09-24T19:01:39.745Z,2.03
2018-09-24T19:07:04.062Z,1.70
2018-09-24T19:12:11.058Z,1.80
2018-09-24T19:14:44.749Z,1.70
2018-09-24T19:17:18.517Z,2.60
2018-09-24T19:19:52.294Z,2.20
2018-09-24T19:22:25.770Z,2.27
2018-09-24T19:24:59.574Z,2.07
2018-09-24T19:27:32.993Z,2.00
2018-09-24T19:32:39.667Z,1.80
2018-09-24T19:35:13.447Z,1.63
2018-09-24T19:37:47.295Z,1.90
2018-09-24T19:40:20.949Z,1.70
2018-09-24T19:45:41.608Z,2.20
2018-09-24T19:48:15.213Z,2.20
2018-09-24T19:50:48.618Z,1.80
2018-09-24T19:53:22.054Z,2.00
2018-09-24T19:55:56.303Z,2.03
2018-09-24T19:58:29.991Z,1.97
2018-09-24T20:03:36.743Z,1.90
2018-09-24T20:06:10.517Z,2.17
2018-09-24T20:08:44.516Z,1.97
2018-09-24T20:11:17.951Z,2.37
2018-09-24T20:13:51.566Z,2.03
2018-09-24T20:16:35.469Z,2.37
2018-09-24T20:19:09.318Z,1.90
2018-09-24T20:21:42.762Z,2.03
2018-09-24T20:24:17.586Z,1.87
2018-09-24T20:26:51.350Z,2.00
2018-09-24T20:29:24.970Z,2.00
2018-09-24T20:37:05.534Z,1.83
2018-09-24T20:39:39.184Z,1.90
2018-09-24T20:42:12.872Z,2.00
2018-09-24T20:44:46.737Z,2.43
2018-09-24T20:47:20.599Z,2.17
2018-09-24T20:49:54.298Z,2.00
2018-09-24T20:52:28.021Z,2.30
2018-09-24T20:57:35.181Z,2.07
2018-09-24T21:00:09.300Z,2.30
2018-09-24T21:02:42.881Z,1.93
2018-09-24T21:05:16.577Z,1.83
2018-09-24T21:07:50.498Z,1.97
2018-09-24T21:10:23.916Z,1.83
2018-09-24T21:15:30.809Z,1.97
2018-09-24T21:18:04.510Z,5.67
2018-09-24T21:20:38.306Z,6.37
2018-09-24T21:23:11.922Z,6.20
2018-09-24T21:25:45.627Z,4.30
2018-09-24T21:28:19.518Z,4.47
2018-09-24T21:30:52.930Z,4.47
2018-09-24T21:38:32.870Z,4.53
2018-09-24T21:41:06.577Z,3.63
2018-09-24T21:43:40.446Z,3.77
2018-09-24T21:46:14.215Z,3.67
2018-09-24T21:48:48.042Z,3.70
2018-09-24T21:53:54.724Z,3.70
2018-09-24T21:56:28.386Z,3.50
2018-09-24T21:59:02.023Z,3.27
2018-09-24T22:04:09.186Z,3.50
2018-09-24T22:06:42.766Z,3.97
2018-09-24T22:09:16.490Z,3.33
2018-09-24T22:11:50.011Z,3.63
2018-09-24T22:16:57.036Z,3.40
2018-09-24T22:22:03.674Z,3.70
2018-09-24T22:24:37.391Z,3.30
2018-09-24T22:27:10.974Z,3.30
2018-09-24T22:29:44.606Z,3.30
2018-09-24T22:32:18.326Z,3.20
2018-09-24T22:34:51.890Z,3.27
2018-09-24T22:37:25.670Z,2.93
2018-09-24T22:39:59.505Z,2.87
2018-09-24T22:42:33.406Z,3.00
2018-09-24T22:45:07.010Z,3.63
2018-09-24T22:50:13.632Z,3.27
2018-09-24T22:52:47.301Z,3.13
2018-09-24T22:55:20.886Z,2.70
2018-09-24T22:57:54.847Z,2.97
2018-09-24T23:00:28.395Z,3.10
2018-09-24T23:03:02.390Z,3.07
2018-09-24T23:05:36.038Z,2.30
2018-09-24T23:10:42.905Z,2.60
2018-09-24T23:13:16.570Z,2.60
2018-09-24T23:15:50.584Z,2.90
2018-09-24T23:18:24.213Z,2.77
2018-09-24T23:20:57.898Z,2.50
2018-09-24T23:23:31.534Z,2.63
2018-09-24T23:26:05.784Z,2.80
2018-09-24T23:31:12.768Z,2.70
2018-09-24T23:33:46.480Z,2.20
2018-09-24T23:36:20.262Z,2.47
2018-09-24T23:38:53.938Z,2.73
2018-09-24T23:41:27.635Z,2.07
2018-09-24T23:44:01.326Z,2.20
2018-09-24T23:46:34.782Z,2.40
2018-09-24T23:49:08.421Z,2.17
2018-09-24T23:51:42.045Z,2.10
2018-09-24T23:54:15.918Z,2.33
2018-09-24T23:56:49.591Z,2.17
2018-09-24T23:59:23.326Z,2.07
